Time;durP1;ratioP1;P1;durP2;ratioP2;P2;SDS_P1;SDS_P2;PMS_P1;PMS_P2;Temp;Humidity;BMP_temperature;BMP_pressure;BME280_temperature;BME280_humidity;BME280_pressure;Samples;Min_cycle;Max_cycle;Signal;HPM_P1;HPM_P2
2021/05/29 00:00:59;;;;;;;22.73;6.45;;;;;;;12.10;82.11;101791.84;4997728;28;20076;-48
2021/05/29 00:03:27;;;;;;;5.63;4.18;;;;;;;12.09;82.29;101795.78;5005810;28;20467;-48
2021/05/29 00:05:54;;;;;;;6.00;4.72;;;;;;;12.10;82.12;101797.41;5005526;28;20124;-49
2021/05/29 00:08:21;;;;;;;8.05;4.45;;;;;;;12.11;82.16;101805.41;4991920;28;20129;-49
2021/05/29 00:10:52;;;;;;;11.40;4.65;;;;;;;12.11;82.06;101805.41;5007712;28;20088;-49
2021/05/29 00:13:20;;;;;;;11.75;5.63;;;;;;;12.12;82.18;101800.69;5004225;28;20117;-51
2021/05/29 00:15:51;;;;;;;8.25;4.45;;;;;;;12.12;81.93;101795.94;4991717;28;20069;-51
2021/05/29 00:18:18;;;;;;;11.40;5.40;;;;;;;12.14;82.09;101804.75;4991744;28;20060;-50
2021/05/29 00:20:45;;;;;;;7.80;4.95;;;;;;;12.19;81.98;101800.97;4999392;28;20140;-48
2021/05/29 00:23:13;;;;;;;13.38;6.25;;;;;;;12.20;82.02;101803.41;5002780;28;20135;-52
2021/05/29 00:25:44;;;;;;;12.05;5.50;;;;;;;12.23;81.91;101793.63;4998080;28;21662;-51
2021/05/29 00:28:11;;;;;;;11.77;5.32;;;;;;;12.21;81.94;101787.59;4994026;28;20065;-50
2021/05/29 00:30:39;;;;;;;8.18;4.95;;;;;;;12.18;82.03;101788.25;5002373;28;20137;-54
2021/05/29 00:33:06;;;;;;;10.88;5.47;;;;;;;12.20;81.96;101791.53;4997240;28;20074;-47
2021/05/29 00:35:33;;;;;;;8.98;5.88;;;;;;;12.23;82.01;101796.41;4990725;28;20050;-47
2021/05/29 00:38:00;;;;;;;14.52;6.18;;;;;;;12.26;81.98;101795.72;5004757;28;20046;-46
2021/05/29 00:40:27;;;;;;;9.10;5.43;;;;;;;12.26;81.78;101800.50;5006894;28;20132;-48
2021/05/29 00:42:56;;;;;;;10.57;5.38;;;;;;;12.27;81.98;101799.31;5000953;28;20062;-50
2021/05/29 00:45:23;;;;;;;11.40;6.20;;;;;;;12.26;82.08;101801.28;5013640;28;20580;-48
2021/05/29 00:47:50;;;;;;;8.15;6.22;;;;;;;12.28;82.03;101814.84;5012954;28;20137;-47
2021/05/29 00:50:20;;;;;;;12.88;6.65;;;;;;;12.29;81.87;101799.81;5006202;28;20180;-48
2021/05/29 00:52:47;;;;;;;12.02;7.22;;;;;;;12.29;81.97;101803.41;5013380;28;20050;-49
2021/05/29 00:55:15;;;;;;;11.10;6.25;;;;;;;12.26;82.07;101801.28;4999130;28;20077;-49
2021/05/29 00:57:45;;;;;;;9.85;6.32;;;;;;;12.28;82.02;101798.19;4996712;28;20125;-51
2021/05/29 01:00:14;;;;;;;9.10;6.55;;;;;;;12.28;81.93;101803.75;5004881;28;20555;-49
2021/05/29 01:02:41;;;;;;;7.22;5.82;;;;;;;12.29;82.08;101800.63;4992555;28;20129;-49
2021/05/29 01:05:10;;;;;;;10.13;6.50;;;;;;;12.29;82.07;101806.19;4995014;28;20050;-47
2021/05/29 01:07:38;;;;;;;7.63;6.20;;;;;;;12.30;82.16;101807.81;5005806;28;20080;-53
2021/05/29 01:10:08;;;;;;;12.57;7.13;;;;;;;12.30;82.17;101801.44;5010468;28;20041;-46
2021/05/29 01:12:35;;;;;;;11.15;7.07;;;;;;;12.28;82.30;101814.84;4998967;28;20050;-49
2021/05/29 01:15:05;;;;;;;11.75;7.35;;;;;;;12.26;82.18;101811.59;4996203;28;20116;-50
2021/05/29 01:17:32;;;;;;;12.35;7.13;;;;;;;12.25;82.07;101816.34;5005530;28;20603;-51
2021/05/29 01:19:59;;;;;;;10.15;6.25;;;;;;;12.21;82.31;101805.06;5012700;28;20081;-49
2021/05/29 01:22:43;;;;;;;9.85;7.30;;;;;;;12.17;82.46;101811.63;5002047;28;20172;-47
2021/05/29 01:25:40;;;;;;;8.73;5.90;;;;;;;12.16;82.17;101815.53;5004047;28;20077;-52
2021/05/29 01:28:12;;;;;;;11.00;7.72;;;;;;;12.15;82.23;101816.69;4992146;28;20141;-50
2021/05/29 01:30:51;;;;;;;10.02;7.65;;;;;;;12.09;82.39;101812.44;4995154;28;20129;-49
2021/05/29 01:33:25;;;;;;;12.55;7.35;;;;;;;12.07;82.43;101809.97;5003341;28;20137;-51
2021/05/29 01:35:56;;;;;;;14.68;8.02;;;;;;;12.06;82.61;101815.88;4998259;28;20488;-50
2021/05/29 01:38:25;;;;;;;12.15;7.53;;;;;;;12.04;82.52;101809.84;5014008;28;20092;-52
2021/05/29 01:40:53;;;;;;;11.95;8.02;;;;;;;12.01;82.69;101811.31;4997409;28;20078;-49
2021/05/29 01:43:20;;;;;;;10.05;7.82;;;;;;;12.02;82.57;101807.38;4999298;28;20128;-49
2021/05/29 01:45:47;;;;;;;16.02;8.80;;;;;;;12.03;82.48;101820.13;5001469;28;20078;-48
2021/05/29 01:48:18;;;;;;;11.88;8.63;;;;;;;12.05;82.72;101825.34;5012285;28;20065;-49
2021/05/29 01:50:49;;;;;;;13.88;8.50;;;;;;;12.02;82.74;101812.94;5006245;28;20603;-50
2021/05/29 01:53:19;;;;;;;12.10;8.10;;;;;;;12.00;82.71;101826.31;5011771;28;20046;-50
2021/05/29 01:55:47;;;;;;;19.20;10.70;;;;;;;12.02;82.70;101826.03;4993067;28;20145;-47
2021/05/29 01:58:15;;;;;;;12.90;9.50;;;;;;;12.01;82.80;101829.94;5013468;28;20134;-48
2021/05/29 02:00:42;;;;;;;11.50;7.95;;;;;;;12.03;82.88;101831.22;5011141;28;20776;-47
2021/05/29 02:03:08;;;;;;;13.93;9.40;;;;;;;12.05;82.89;101833.66;5008691;28;20124;-49
2021/05/29 02:05:36;;;;;;;11.88;7.80;;;;;;;12.04;82.84;101832.88;5003639;28;20064;-48
2021/05/29 02:08:05;;;;;;;10.15;7.75;;;;;;;12.06;82.83;101830.56;5012196;28;20478;-47
2021/05/29 02:10:34;;;;;;;11.52;8.65;;;;;;;12.04;82.69;101829.28;5008701;28;20529;-46
2021/05/29 02:13:04;;;;;;;17.27;8.70;;;;;;;12.04;83.05;101840.38;5011966;28;20074;-53
2021/05/29 02:15:37;;;;;;;14.30;8.77;;;;;;;12.02;83.17;101839.91;5001497;28;20042;-48
2021/05/29 02:18:07;;;;;;;15.02;8.32;;;;;;;11.97;83.26;101837.25;5001603;28;20795;-47
2021/05/29 02:20:47;;;;;;;11.02;8.40;;;;;;;11.96;83.47;101841.19;5001087;28;20443;-47
2021/05/29 02:23:35;;;;;;;14.40;8.63;;;;;;;11.99;83.35;101832.22;5004138;28;20050;-47
2021/05/29 02:26:07;;;;;;;12.20;8.52;;;;;;;11.97;83.33;101837.25;5006186;28;20049;-48
2021/05/29 02:28:36;;;;;;;15.85;9.18;;;;;;;12.00;83.17;101831.06;4983129;28;20050;-47
2021/05/29 02:31:04;;;;;;;12.48;8.55;;;;;;;11.99;83.05;101835.00;4996599;28;20169;-49
2021/05/29 02:33:31;;;;;;;18.83;10.20;;;;;;;11.99;83.03;101846.88;5002422;28;20120;-49
2021/05/29 02:35:59;;;;;;;17.02;10.00;;;;;;;11.98;83.14;101841.69;4998880;28;20050;-47
2021/05/29 02:38:27;;;;;;;15.75;10.27;;;;;;;11.99;83.11;101840.53;5005497;28;20050;-48
2021/05/29 02:40:57;;;;;;;14.43;8.88;;;;;;;11.98;83.06;101844.44;5006871;28;20050;-48
2021/05/29 02:43:24;;;;;;;16.65;10.02;;;;;;;11.97;83.00;101845.59;4995281;28;20096;-50
2021/05/29 02:45:52;;;;;;;18.88;10.23;;;;;;;11.92;83.29;101845.75;5009845;28;20115;-49
2021/05/29 02:48:21;;;;;;;14.40;10.27;;;;;;;11.93;83.38;101844.63;5001431;28;20464;-51
2021/05/29 02:50:48;;;;;;;14.52;8.90;;;;;;;11.94;83.54;101849.84;5003448;28;20100;-47
2021/05/29 02:53:18;;;;;;;15.52;10.20;;;;;;;11.95;83.31;101845.09;5009252;28;20064;-46
2021/05/29 02:55:46;;;;;;;14.45;9.35;;;;;;;11.98;83.35;101855.56;5006546;28;20053;-49
2021/05/29 02:58:13;;;;;;;16.50;10.40;;;;;;;11.99;83.12;101852.44;5012885;28;20144;-49
2021/05/29 03:00:43;;;;;;;18.77;11.07;;;;;;;11.99;83.19;101857.19;5011460;28;20124;-49
2021/05/29 03:03:10;;;;;;;14.70;10.73;;;;;;;11.97;83.02;101853.91;5012186;28;20543;-51
2021/05/29 03:05:44;;;;;;;16.35;10.13;;;;;;;11.93;83.24;101859.31;5006723;28;20055;-50
2021/05/29 03:08:15;;;;;;;14.73;10.70;;;;;;;11.95;83.31;101862.56;5011539;28;20040;-48
2021/05/29 03:10:44;;;;;;;16.13;9.85;;;;;;;11.93;83.27;101858.50;4998734;28;20478;-49
2021/05/29 03:13:11;;;;;;;13.38;10.32;;;;;;;11.96;83.39;101868.94;5012188;28;20064;-48
2021/05/29 03:15:38;;;;;;;13.80;9.45;;;;;;;11.97;83.36;101865.00;5002250;28;20057;-49
2021/05/29 03:18:06;;;;;;;15.48;10.05;;;;;;;11.98;83.25;101864.69;5012262;28;20141;-48
2021/05/29 03:20:34;;;;;;;15.07;10.48;;;;;;;11.98;83.43;101855.56;4983385;28;20038;-46
2021/05/29 03:23:01;;;;;;;15.75;11.25;;;;;;;11.98;83.55;101861.09;4992503;28;20088;-47
2021/05/29 03:25:28;;;;;;;18.42;9.95;;;;;;;11.97;83.38;101851.97;5011794;28;20038;-49
2021/05/29 03:27:55;;;;;;;18.80;10.90;;;;;;;11.95;83.72;101864.53;5011814;28;20120;-50
2021/05/29 03:30:25;;;;;;;17.63;10.90;;;;;;;11.92;83.75;101856.84;5010424;28;20065;-47
2021/05/29 03:32:52;;;;;;;15.13;10.50;;;;;;;11.92;83.69;101860.44;5011428;28;20121;-53
2021/05/29 03:35:20;;;;;;;16.55;9.50;;;;;;;11.95;83.74;101856.22;5007887;28;20046;-48
2021/05/29 03:37:47;;;;;;;16.75;10.15;;;;;;;11.97;83.62;101859.47;4978852;28;20137;-50
2021/05/29 03:40:15;;;;;;;13.07;9.05;;;;;;;11.96;83.61;101857.84;5003689;28;20112;-52
2021/05/29 03:42:43;;;;;;;18.60;10.35;;;;;;;11.97;83.78;101856.69;5007403;28;20128;-48
2021/05/29 03:45:13;;;;;;;16.95;10.82;;;;;;;11.96;83.72;101860.63;5006373;28;20476;-47
2021/05/29 03:47:41;;;;;;;17.50;11.35;;;;;;;11.94;83.68;101858.16;4999131;28;20100;-51
2021/05/29 03:50:10;;;;;;;16.10;10.05;;;;;;;11.94;83.81;101862.91;4993461;28;20132;-52
2021/05/29 03:52:37;;;;;;;17.27;11.40;;;;;;;11.95;83.75;101864.53;5010465;28;20045;-49
2021/05/29 03:55:05;;;;;;;14.10;10.35;;;;;;;11.95;83.84;101867.31;5008556;28;20046;-49
2021/05/29 03:57:32;;;;;;;15.82;10.00;;;;;;;11.93;83.86;101867.66;5007030;28;20145;-49
2021/05/29 03:59:59;;;;;;;15.27;9.98;;;;;;;11.92;84.15;101865.19;5009649;28;20140;-47
2021/05/29 04:02:25;;;;;;;16.08;10.35;;;;;;;11.93;84.13;101866.81;4996148;28;20105;-53
2021/05/29 04:04:52;;;;;;;14.02;10.20;;;;;;;11.96;83.98;101874.50;4993470;28;20133;-49
2021/05/29 04:07:19;;;;;;;20.02;12.55;;;;;;;11.96;83.96;101864.22;5007851;28;20471;-52
2021/05/29 04:09:46;;;;;;;17.15;10.32;;;;;;;11.99;83.80;101868.31;4990925;28;20517;-53
2021/05/29 04:12:13;;;;;;;13.55;9.85;;;;;;;12.01;83.72;101868.78;5006730;28;20042;-49
2021/05/29 04:14:40;;;;;;;13.23;9.50;;;;;;;12.00;83.81;101867.13;4992076;28;20132;-49
2021/05/29 04:17:06;;;;;;;17.25;11.52;;;;;;;12.00;83.80;101867.13;4995445;28;20158;-51
2021/05/29 04:19:33;;;;;;;20.92;10.43;;;;;;;11.99;83.66;101862.75;5011278;28;20045;-49
2021/05/29 04:22:00;;;;;;;12.32;8.68;;;;;;;11.98;83.96;101873.03;5011239;28;20058;-50
2021/05/29 04:24:27;;;;;;;17.00;10.77;;;;;;;12.00;83.93;101864.38;5009506;28;20096;-52
2021/05/29 04:26:54;;;;;;;12.38;8.85;;;;;;;12.01;83.82;101863.22;5010435;28;20136;-50
2021/05/29 04:29:20;;;;;;;17.10;10.57;;;;;;;12.03;83.71;101867.31;5009112;28;20385;-50
2021/05/29 04:31:47;;;;;;;14.75;9.70;;;;;;;12.05;83.67;101855.88;5009831;28;20069;-48
2021/05/29 04:34:14;;;;;;;16.55;9.93;;;;;;;12.04;83.59;101859.81;5009175;28;20050;-51
2021/05/29 04:36:41;;;;;;;13.00;8.07;;;;;;;12.04;83.70;101870.91;5009555;28;20057;-49
2021/05/29 04:39:08;;;;;;;14.10;8.32;;;;;;;12.06;83.32;101874.16;5006995;28;20074;-47
2021/05/29 04:41:35;;;;;;;17.02;10.10;;;;;;;12.06;83.55;101879.72;5010797;28;20029;-48
2021/05/29 04:44:01;;;;;;;15.20;9.90;;;;;;;12.03;83.35;101870.09;4991313;28;20391;-53
2021/05/29 04:46:28;;;;;;;12.75;8.93;;;;;;;12.01;83.53;101879.88;5003517;28;20461;-50
2021/05/29 04:48:55;;;;;;;12.93;8.57;;;;;;;12.01;83.63;101875.16;5000529;28;20042;-47
2021/05/29 04:51:22;;;;;;;15.18;8.73;;;;;;;12.05;83.69;101883.63;5003401;28;20042;-48
2021/05/29 04:53:49;;;;;;;14.25;9.13;;;;;;;12.06;83.48;101879.72;5009870;28;20487;-52
2021/05/29 04:56:17;;;;;;;17.23;9.57;;;;;;;12.07;83.67;101892.47;4993090;28;20080;-48
2021/05/29 04:58:44;;;;;;;12.85;8.75;;;;;;;12.05;83.55;101889.19;5010720;28;20463;-49
2021/05/29 05:01:11;;;;;;;14.63;9.32;;;;;;;12.01;83.58;101904.88;5010156;28;20048;-48
2021/05/29 05:03:40;;;;;;;17.55;8.57;;;;;;;11.98;83.52;101908.28;5003604;28;20082;-51
2021/05/29 05:06:07;;;;;;;16.10;9.13;;;;;;;11.92;83.60;101910.41;5008434;28;20081;-48
2021/05/29 05:08:34;;;;;;;13.48;8.23;;;;;;;11.87;83.63;101915.28;5003295;28;20104;-49
2021/05/29 05:11:04;;;;;;;18.23;9.48;;;;;;;11.88;83.58;101908.63;5003717;28;20463;-52
2021/05/29 05:13:31;;;;;;;13.88;9.55;;;;;;;11.82;83.52;101918.22;5003049;28;20129;-50
2021/05/29 05:15:58;;;;;;;12.63;8.13;;;;;;;11.77;84.03;101921.16;5009817;28;20044;-51
2021/05/29 05:18:24;;;;;;;14.82;9.43;;;;;;;11.78;83.82;101917.25;5010287;28;20156;-50
2021/05/29 05:20:52;;;;;;;11.85;8.65;;;;;;;11.82;83.75;101915.47;5003388;28;20137;-50
2021/05/29 05:23:21;;;;;;;13.00;7.35;;;;;;;11.84;83.88;101911.22;5009627;28;20061;-49
2021/05/29 05:25:53;;;;;;;12.30;8.88;;;;;;;11.81;83.80;101914.63;5005420;28;20132;-49
2021/05/29 05:28:25;;;;;;;12.60;9.18;;;;;;;11.84;83.96;101910.41;4997610;28;20046;-51
2021/05/29 05:30:53;;;;;;;11.20;9.07;;;;;;;11.91;84.00;101927.41;5012260;28;20052;-49
2021/05/29 05:33:21;;;;;;;13.30;9.13;;;;;;;11.99;83.79;101918.25;5013237;28;20041;-52
2021/05/29 05:35:48;;;;;;;16.52;9.82;;;;;;;12.03;83.89;101913.69;5011673;28;20120;-50
2021/05/29 05:38:15;;;;;;;13.95;8.88;;;;;;;12.07;83.92;101928.53;5012755;28;20073;-50
2021/05/29 05:40:42;;;;;;;17.27;10.35;;;;;;;12.16;84.21;101929.34;5007462;28;20450;-51
2021/05/29 05:43:12;;;;;;;15.68;10.05;;;;;;;12.22;84.00;101936.38;5013444;28;20457;-48
2021/05/29 05:45:40;;;;;;;14.10;9.15;;;;;;;12.29;84.01;101939.47;5008892;28;20137;-49
2021/05/29 05:48:07;;;;;;;12.18;7.95;;;;;;;12.37;83.89;101948.94;4995743;28;20132;-49
2021/05/29 05:50:33;;;;;;;16.10;10.30;;;;;;;12.43;83.88;101944.84;5000781;28;20038;-48
2021/05/29 05:53:00;;;;;;;15.98;8.60;;;;;;;12.44;83.74;101946.50;5013252;28;20101;-48
2021/05/29 05:55:27;;;;;;;15.55;8.30;;;;;;;12.50;83.55;101956.25;4991335;28;20061;-52
2021/05/29 05:57:54;;;;;;;10.27;6.75;;;;;;;12.52;83.60;101959.56;5008998;28;20038;-49
2021/05/29 06:00:21;;;;;;;9.35;7.05;;;;;;;12.56;83.42;101960.50;4999956;28;20141;-51
2021/05/29 06:02:47;;;;;;;10.52;6.70;;;;;;;12.60;83.44;101969.84;5012086;28;20077;-49
2021/05/29 06:05:16;;;;;;;7.63;6.07;;;;;;;12.61;83.20;101966.72;5003815;28;20085;-51
2021/05/29 06:07:42;;;;;;;8.00;6.65;;;;;;;12.66;83.32;101972.09;5004259;28;20059;-48
2021/05/29 06:10:10;;;;;;;6.85;4.88;;;;;;;12.74;83.00;101978.78;5011035;28;20054;-49
2021/05/29 06:12:42;;;;;;;6.05;4.63;;;;;;;12.77;82.93;101983.69;5012360;28;20450;-51
2021/05/29 06:20:46;;;;;;;6.43;4.22;;;;;;;12.86;82.20;101992.00;4996699;28;20070;-50
2021/05/29 06:23:13;;;;;;;6.05;3.53;;;;;;;12.87;81.91;101990.88;5001806;28;20045;-49
2021/05/29 06:25:43;;;;;;;9.52;4.57;;;;;;;12.92;81.85;101985.94;5002455;28;20054;-49
2021/05/29 06:28:11;;;;;;;5.47;4.20;;;;;;;12.99;81.72;101991.81;5011967;28;20057;-51
2021/05/29 06:30:38;;;;;;;5.35;3.92;;;;;;;13.02;81.57;102002.28;5009963;28;20088;-54
2021/05/29 06:33:05;;;;;;;7.32;4.38;;;;;;;13.00;80.89;101992.66;5008257;28;20054;-52
2021/05/29 06:35:32;;;;;;;5.03;4.30;;;;;;;13.01;81.26;102005.38;5005267;28;20103;-51
2021/05/29 06:38:00;;;;;;;7.38;4.03;;;;;;;13.04;80.74;101999.16;5013043;28;20112;-56
2021/05/29 06:40:27;;;;;;;7.72;3.83;;;;;;;13.04;80.73;102010.28;5009854;28;20455;-48
2021/05/29 06:42:54;;;;;;;9.05;4.32;;;;;;;13.09;80.32;102010.13;4994639;28;20145;-51
2021/05/29 06:45:22;;;;;;;6.50;3.97;;;;;;;13.08;80.24;102011.31;5002805;28;20471;-53
2021/05/29 06:47:50;;;;;;;4.68;3.80;;;;;;;13.12;80.18;102026.97;4998838;28;20049;-51
2021/05/29 06:50:17;;;;;;;5.53;4.20;;;;;;;13.18;79.95;102028.44;5007539;28;20093;-48
2021/05/29 06:52:48;;;;;;;6.25;4.32;;;;;;;13.18;79.96;102025.66;4995409;28;20077;-52
2021/05/29 07:00:50;;;;;;;5.53;4.75;;;;;;;13.35;79.56;102039.50;4999225;28;20074;-51
2021/05/29 07:03:17;;;;;;;7.38;4.43;;;;;;;13.45;79.34;102031.94;5002127;28;20046;-54
2021/05/29 07:05:44;;;;;;;5.75;4.00;;;;;;;13.46;78.93;102039.94;4998234;28;20056;-50
2021/05/29 07:08:11;;;;;;;8.38;4.68;;;;;;;13.54;78.91;102047.44;4998873;28;20051;-47
2021/05/29 07:10:38;;;;;;;8.07;4.70;;;;;;;13.63;78.78;102039.88;4999456;28;20408;-52
2021/05/29 07:13:05;;;;;;;6.07;4.50;;;;;;;13.74;78.58;102051.47;4993878;28;20042;-53
2021/05/29 07:15:37;;;;;;;5.68;4.15;;;;;;;13.87;78.42;102051.19;5006188;28;20050;-55
2021/05/29 07:18:11;;;;;;;7.68;4.00;;;;;;;14.01;78.11;102049.00;4987303;28;20465;-48
2021/05/29 07:20:39;;;;;;;6.78;4.30;;;;;;;14.15;78.29;102050.72;5003173;28;20026;-55
2021/05/29 07:23:08;;;;;;;6.13;4.30;;;;;;;14.20;77.94;102058.88;5002126;28;20708;-48
2021/05/29 07:25:36;;;;;;;7.72;4.38;;;;;;;14.30;77.80;102066.84;5005454;28;20124;-54
2021/05/29 07:28:04;;;;;;;8.60;4.45;;;;;;;14.42;77.61;102064.19;4998686;28;20064;-53
2021/05/29 07:30:31;;;;;;;7.10;4.28;;;;;;;14.46;77.22;102067.91;4990713;28;20050;-55
2021/05/29 07:32:58;;;;;;;5.45;4.90;;;;;;;14.53;77.15;102082.13;4982183;28;20038;-53
2021/05/29 07:35:27;;;;;;;8.70;4.82;;;;;;;14.54;76.58;102081.78;5000911;28;20128;-53
2021/05/29 07:37:57;;;;;;;;;;;;;;;14.54;76.05;102075.38;4999014;28;20045;-53
2021/05/29 07:40:24;;;;;;;12.25;4.95;;;;;;;14.52;76.61;102083.28;5004576;28;19925;-53
2021/05/29 07:42:51;;;;;;;6.07;5.00;;;;;;;14.47;76.39;102081.50;4991560;28;20812;-54
2021/05/29 07:45:17;;;;;;;6.28;4.75;;;;;;;14.44;76.28;102075.78;5001666;28;20066;-48
2021/05/29 07:47:45;;;;;;;6.25;4.63;;;;;;;14.39;75.66;102078.78;4993024;28;20046;-54
2021/05/29 07:50:13;;;;;;;5.97;5.22;;;;;;;14.31;75.58;102083.25;4994314;28;20168;-52
2021/05/29 07:52:40;;;;;;;6.75;5.05;;;;;;;14.28;75.50;102083.91;5008924;28;20085;-50
2021/05/29 07:55:08;;;;;;;7.28;5.07;;;;;;;14.23;74.99;102088.84;4999143;28;20868;-55
2021/05/29 07:57:35;;;;;;;9.88;6.22;;;;;;;14.31;75.28;102093.56;5007860;28;20046;-53
2021/05/29 08:00:05;;;;;;;5.05;3.75;;;;;;;14.38;75.18;102091.06;4994399;28;20046;-53
2021/05/29 08:02:32;;;;;;;5.97;4.55;;;;;;;14.49;75.13;102095.91;4992897;28;20046;-52
2021/05/29 08:04:59;;;;;;;5.43;4.93;;;;;;;14.59;74.79;102094.69;5007584;28;20054;-52
2021/05/29 08:07:25;;;;;;;5.93;4.18;;;;;;;14.67;74.33;102101.38;4998885;28;20160;-54
2021/05/29 08:09:55;;;;;;;7.22;4.97;;;;;;;14.73;74.21;102094.41;4979636;28;20045;-53
2021/05/29 08:12:23;;;;;;;25.08;20.33;;;;;;;14.83;73.76;102103.19;5007454;28;20081;-55
2021/05/29 08:14:50;;;;;;;6.13;4.88;;;;;;;14.96;73.82;102095.69;5008124;28;20054;-53
2021/05/29 08:17:18;;;;;;;7.43;6.13;;;;;;;15.08;73.57;102093.78;4997628;28;20124;-53
2021/05/29 08:19:44;;;;;;;5.53;4.07;;;;;;;15.32;73.58;102095.00;5005001;28;20409;-57
2021/05/29 08:22:11;;;;;;;6.80;4.03;;;;;;;15.58;73.51;102095.56;4983664;28;20133;-55
2021/05/29 08:24:38;;;;;;;6.00;4.60;;;;;;;15.66;72.94;102094.66;5007251;28;20137;-52
2021/05/29 08:27:05;;;;;;;4.90;4.40;;;;;;;15.61;72.36;102098.47;5002635;28;20096;-57
2021/05/29 08:29:32;;;;;;;5.80;3.90;;;;;;;15.62;72.30;102105.69;4994460;28;20869;-57
2021/05/29 08:31:59;;;;;;;4.22;3.50;;;;;;;16.00;72.49;102102.59;5006489;28;20136;-56
2021/05/29 08:34:26;;;;;;;5.15;4.10;;;;;;;16.83;72.48;102100.03;4990581;28;20050;-50
2021/05/29 08:36:53;;;;;;;4.43;3.85;;;;;;;17.60;72.05;102112.66;4996741;28;20049;-51
2021/05/29 08:39:19;;;;;;;7.78;3.97;;;;;;;18.39;71.48;102102.19;5002212;28;20148;-55
2021/05/29 08:41:46;;;;;;;5.25;3.55;;;;;;;18.93;69.73;102107.03;4985054;28;20061;-49
2021/05/29 08:44:13;;;;;;;4.30;3.20;;;;;;;19.50;68.42;102104.19;5010746;28;20049;-50
2021/05/29 08:46:40;;;;;;;5.82;3.35;;;;;;;20.08;66.00;102112.41;5004909;28;20049;-49
2021/05/29 08:49:07;;;;;;;4.22;3.63;;;;;;;20.65;63.85;102114.94;4998763;28;20084;-47
2021/05/29 08:51:34;;;;;;;3.92;3.63;;;;;;;20.92;63.27;102115.66;4997695;28;20047;-50
2021/05/29 08:54:01;;;;;;;7.78;4.22;;;;;;;20.60;61.63;102112.41;4993695;28;20084;-44
2021/05/29 08:56:28;;;;;;;6.53;3.70;;;;;;;20.74;61.19;102118.25;5007155;28;20077;-44
2021/05/29 08:58:56;;;;;;;7.22;3.85;;;;;;;20.83;60.44;102118.78;5008528;28;20136;-48
2021/05/29 09:01:25;;;;;;;3.78;3.30;;;;;;;21.11;59.70;102122.00;4993119;28;20571;-44
2021/05/29 09:03:55;;;;;;;4.45;3.42;;;;;;;20.97;58.83;102124.59;5005855;28;20068;-46
2021/05/29 09:06:31;;;;;;;5.05;4.32;;;;;;;20.65;56.84;102126.97;5008137;28;20117;-60
2021/05/29 09:24:15;;;;;;;5.05;3.22;;;;;;;22.63;54.88;102131.09;4948345;28;20077;-51
2021/05/29 09:26:49;;;;;;;3.53;3.22;;;;;;;22.93;53.49;102140.13;4986398;28;20043;-49
2021/05/29 09:29:17;;;;;;;4.00;3.63;;;;;;;23.12;52.84;102142.63;4990450;28;20042;-48
2021/05/29 09:31:53;;;;;;;4.57;3.10;;;;;;;23.28;51.47;102151.59;4994494;28;20109;-48
2021/05/29 09:34:41;;;;;;;4.47;3.35;;;;;;;22.92;50.60;102147.00;4992135;28;20104;-52
2021/05/29 09:37:14;;;;;;;4.00;3.05;;;;;;;22.10;52.23;102137.16;4987006;28;20070;-50
2021/05/29 09:39:49;;;;;;;5.05;3.60;;;;;;;21.52;52.55;102142.59;4989572;28;20047;-53
2021/05/29 09:42:17;;;;;;;4.75;3.35;;;;;;;21.64;53.30;102150.78;4983813;28;20056;-52
2021/05/29 09:44:44;;;;;;;5.63;3.55;;;;;;;22.04;52.60;102152.81;4991416;28;20109;-49
2021/05/29 09:47:16;;;;;;;7.15;3.55;;;;;;;22.58;51.61;102148.38;4991061;28;20161;-46
2021/05/29 09:49:44;;;;;;;;;;;;;;;22.93;51.91;102148.59;4994497;28;20042;-53
2021/05/29 09:52:30;;;;;;;4.72;4.30;;;;;;;23.20;51.85;102157.59;4990562;28;20024;-50
2021/05/29 09:55:05;;;;;;;12.52;4.18;;;;;;;23.31;52.45;102156.44;4990776;28;20054;-48
2021/05/29 09:57:51;;;;;;;9.75;3.88;;;;;;;23.46;51.17;102146.81;4990796;28;20081;-48
2021/05/29 10:00:18;;;;;;;6.60;3.35;;;;;;;23.41;51.81;102161.34;4989239;28;20070;-49
2021/05/29 10:03:05;;;;;;;7.07;3.20;;;;;;;23.55;49.41;102158.56;4990621;28;20503;-49
2021/05/29 10:05:35;;;;;;;7.30;3.45;;;;;;;23.48;51.03;102152.88;4987930;28;20046;-49
2021/05/29 10:08:05;;;;;;;7.07;3.72;;;;;;;23.40;50.88;102156.09;4989983;28;20490;-52
2021/05/29 10:10:35;;;;;;;5.03;3.70;;;;;;;23.36;50.36;102156.06;4989304;28;20524;-49
2021/05/29 10:13:02;;;;;;;5.70;3.08;;;;;;;23.31;50.49;102150.78;4988957;28;20058;-49
2021/05/29 10:15:29;;;;;;;6.38;3.70;;;;;;;23.33;50.55;102151.19;4988926;28;20132;-53
2021/05/29 10:17:57;;;;;;;6.28;3.80;;;;;;;23.23;50.30;102146.31;4990271;28;20623;-46
2021/05/29 10:20:24;;;;;;;4.43;3.38;;;;;;;23.29;50.67;102152.41;4990371;28;20137;-47
2021/05/29 10:22:51;;;;;;;4.80;4.13;;;;;;;23.29;50.51;102153.22;4992910;28;20523;-52
2021/05/29 10:25:21;;;;;;;5.15;3.65;;;;;;;23.34;50.52;102152.81;4991213;28;20053;-46
2021/05/29 10:27:53;;;;;;;6.15;3.80;;;;;;;23.18;50.27;102155.19;4990240;28;20141;-47
2021/05/29 10:30:22;;;;;;;7.13;3.45;;;;;;;23.03;50.49;102148.66;4963588;28;20074;-50
2021/05/29 10:33:12;;;;;;;6.15;3.53;;;;;;;22.65;50.63;102146.44;4991059;28;20050;-49
2021/05/29 10:35:44;;;;;;;5.13;3.28;;;;;;;22.47;51.44;102137.03;4990679;28;20046;-51
2021/05/29 10:38:15;;;;;;;4.25;3.38;;;;;;;22.42;51.91;102141.00;4989295;28;20049;-48
2021/05/29 10:40:48;;;;;;;5.15;3.50;;;;;;;22.35;52.18;102145.78;4985548;28;20054;-47
2021/05/29 10:43:19;;;;;;;4.38;3.20;;;;;;;22.28;52.61;102142.91;4991037;28;20046;-48
2021/05/29 10:45:52;;;;;;;6.68;3.72;;;;;;;22.15;52.94;102147.25;4990949;28;20050;-48
2021/05/29 10:48:21;;;;;;;4.55;3.30;;;;;;;21.94;53.26;102141.44;4991162;28;20670;-46
2021/05/29 10:53:33;;;;;;;4.30;3.13;;;;;;;21.53;52.23;102143.38;4991148;28;20132;-47
2021/05/29 10:56:16;;;;;;;6.05;3.88;;;;;;;21.43;53.46;102149.72;4989691;28;20503;-48
2021/05/29 10:59:06;;;;;;;7.15;3.92;;;;;;;21.35;53.67;102153.66;4991135;28;20065;-47
2021/05/29 11:01:35;;;;;;;4.18;3.78;;;;;;;21.28;53.79;102153.59;4991344;28;20058;-44
2021/05/29 11:04:16;;;;;;;5.20;4.53;;;;;;;21.21;54.45;102152.28;4988669;28;20042;-51
2021/05/29 11:06:57;;;;;;;6.88;3.90;;;;;;;21.19;55.01;102154.69;4985169;28;20133;-48
2021/05/29 11:09:24;;;;;;;4.70;3.85;;;;;;;21.18;55.07;102155.88;4991075;28;20568;-48
2021/05/29 11:11:58;;;;;;;5.60;3.92;;;;;;;21.09;55.24;102163.81;4991031;28;20177;-46
2021/05/29 11:14:30;;;;;;;8.70;4.40;;;;;;;20.89;55.49;102161.50;4989679;28;20113;-48
2021/05/29 11:16:57;;;;;;;5.80;4.40;;;;;;;20.71;55.98;102166.88;4982932;28;20453;-49
2021/05/29 11:19:27;;;;;;;4.75;3.80;;;;;;;20.54;56.37;102164.63;4982877;28;20461;-47
2021/05/29 11:22:11;;;;;;;12.45;5.47;;;;;;;20.34;57.01;102161.06;4993331;28;20544;-47
2021/05/29 11:24:56;;;;;;;6.35;4.35;;;;;;;20.15;57.21;102163.16;4988389;28;20039;-45
2021/05/29 11:27:27;;;;;;;6.95;4.50;;;;;;;20.00;57.45;102162.91;4990536;28;20121;-46
2021/05/29 11:29:57;;;;;;;4.25;3.67;;;;;;;19.88;57.83;102173.53;4990073;28;20133;-47
2021/05/29 11:35:43;;;;;;;5.27;4.00;;;;;;;19.82;58.93;102184.25;4974226;28;20049;-48
2021/05/29 11:38:28;;;;;;;4.25;3.80;;;;;;;19.82;58.67;102181.44;4988726;28;20398;-47
2021/05/29 11:41:20;;;;;;;8.57;4.47;;;;;;;19.70;58.69;102177.97;4989994;28;20054;-47
2021/05/29 11:43:49;;;;;;;5.40;3.50;;;;;;;19.61;59.06;102177.41;4989507;28;20050;-51
2021/05/29 11:46:21;;;;;;;7.03;4.97;;;;;;;19.63;59.56;102170.25;4989845;28;20088;-49
2021/05/29 11:48:56;;;;;;;4.40;4.00;;;;;;;19.66;59.63;102183.56;4989854;28;20491;-44
2021/05/29 11:51:26;;;;;;;8.30;4.43;;;;;;;19.71;59.18;102182.41;4989773;28;20046;-49
2021/05/29 11:54:04;;;;;;;7.15;5.10;;;;;;;19.66;59.07;102180.75;4989747;28;20049;-48
2021/05/29 11:56:34;;;;;;;8.20;5.95;;;;;;;19.56;59.60;102180.53;4987908;28;20039;-44
2021/05/29 11:59:05;;;;;;;9.30;5.30;;;;;;;19.63;59.60;102181.47;4987770;28;20061;-51
2021/05/29 12:01:41;;;;;;;5.55;5.05;;;;;;;19.69;59.24;102182.00;4988865;28;20054;-47
2021/05/29 12:04:13;;;;;;;7.50;4.53;;;;;;;19.67;59.13;102178.75;4988277;28;20096;-51